createdAt,value
2022-10-10T00:01:22.294Z,100.00
2022-10-10T00:03:50.107Z,100.00
2022-10-10T00:06:18.843Z,100.00
2022-10-10T00:08:46.903Z,100.00
2022-10-10T00:11:16.994Z,100.00
2022-10-10T00:13:45.554Z,100.00
2022-10-10T00:16:14.338Z,100.00
2022-10-10T00:18:43.251Z,100.00
2022-10-10T00:21:11.999Z,100.00
2022-10-10T00:23:40.097Z,100.00
2022-10-10T00:26:09.227Z,100.00
2022-10-10T00:28:38.926Z,100.00
2022-10-10T00:31:09.067Z,100.00
2022-10-10T00:33:37.795Z,100.00
2022-10-10T00:36:06.814Z,100.00
2022-10-10T00:38:34.954Z,100.00
2022-10-10T00:41:04.065Z,100.00
2022-10-10T00:43:32.456Z,100.00
2022-10-10T00:46:00.680Z,100.00
2022-10-10T00:48:41.226Z,100.00
2022-10-10T00:51:15.585Z,100.00
2022-10-10T00:53:50.515Z,100.00
2022-10-10T00:56:23.002Z,100.00
2022-10-10T00:58:54.101Z,100.00
2022-10-10T01:01:22.546Z,100.00
2022-10-10T01:03:50.450Z,100.00
2022-10-10T01:06:18.310Z,100.00
2022-10-10T01:08:46.069Z,100.00
2022-10-10T01:11:25.818Z,100.00
2022-10-10T01:14:08.941Z,100.00
2022-10-10T01:16:48.517Z,100.00
2022-10-10T01:19:28.262Z,100.00
2022-10-10T01:22:05.561Z,100.00
2022-10-10T01:24:56.919Z,100.00
2022-10-10T01:27:31.619Z,100.00
2022-10-10T01:30:06.073Z,100.00
2022-10-10T01:32:54.475Z,100.00
2022-10-10T01:35:45.467Z,100.00
2022-10-10T01:38:44.185Z,100.00
2022-10-10T01:41:34.626Z,100.00
2022-10-10T01:44:02.592Z,100.00
2022-10-10T01:46:32.253Z,100.00
2022-10-10T01:49:01.784Z,100.00
2022-10-10T01:51:47.037Z,100.00
2022-10-10T01:54:40.276Z,100.00
2022-10-10T01:57:14.160Z,100.00
2022-10-10T02:00:09.104Z,100.00
2022-10-10T02:03:07.339Z,100.00
2022-10-10T02:05:44.036Z,100.00
2022-10-10T02:08:18.767Z,100.00
2022-10-10T02:11:00.755Z,100.00
2022-10-10T02:13:38.597Z,100.00
2022-10-10T02:16:15.669Z,100.00
2022-10-10T02:18:47.024Z,100.00
2022-10-10T02:21:16.634Z,100.00
2022-10-10T02:23:48.391Z,100.00
2022-10-10T02:26:18.977Z,100.00
2022-10-10T02:28:53.795Z,100.00
2022-10-10T02:31:54.569Z,100.00
2022-10-10T02:34:27.955Z,100.00
2022-10-10T02:37:03.105Z,100.00
2022-10-10T02:39:37.088Z,100.00
2022-10-10T02:42:08.311Z,100.00
2022-10-10T02:44:37.327Z,100.00
2022-10-10T02:47:05.493Z,100.00
2022-10-10T02:49:35.009Z,100.00
2022-10-10T02:52:03.680Z,100.00
2022-10-10T02:54:31.401Z,100.00
2022-10-10T02:56:59.679Z,100.00
2022-10-10T02:59:27.350Z,100.00
2022-10-10T03:01:55.418Z,100.00
2022-10-10T03:04:23.188Z,100.00
2022-10-10T03:06:51.501Z,100.00
2022-10-10T03:09:19.149Z,100.00
2022-10-10T03:11:47.067Z,100.00
2022-10-10T03:14:14.740Z,100.00
2022-10-10T03:16:42.570Z,100.00
2022-10-10T03:19:10.314Z,100.00
2022-10-10T03:21:38.023Z,100.00
2022-10-10T03:24:06.532Z,100.00
2022-10-10T03:26:34.534Z,100.00
2022-10-10T03:29:03.703Z,100.00
2022-10-10T03:31:32.352Z,100.00
2022-10-10T03:34:00.517Z,100.00
2022-10-10T03:36:28.370Z,100.00
2022-10-10T03:38:56.249Z,100.00
2022-10-10T03:41:24.213Z,100.00
2022-10-10T03:43:52.400Z,100.00
2022-10-10T03:46:20.924Z,100.00
2022-10-10T03:48:49.204Z,100.00
2022-10-10T03:51:16.864Z,100.00
2022-10-10T03:53:44.772Z,100.00
2022-10-10T03:56:12.569Z,100.00
2022-10-10T03:58:40.570Z,100.00
2022-10-10T04:01:08.587Z,100.00
2022-10-10T04:03:36.488Z,100.00
2022-10-10T04:06:04.411Z,100.00
2022-10-10T04:08:32.610Z,100.00
2022-10-10T04:11:00.334Z,100.00
2022-10-10T04:13:28.305Z,100.00
2022-10-10T04:15:57.408Z,100.00
2022-10-10T04:18:25.955Z,100.00
2022-10-10T04:20:53.885Z,100.00
2022-10-10T04:23:22.116Z,100.00
2022-10-10T04:25:53.170Z,100.00
2022-10-10T04:28:21.228Z,100.00
2022-10-10T04:30:49.208Z,100.00
2022-10-10T04:33:17.535Z,100.00
2022-10-10T04:35:47.208Z,100.00
2022-10-10T04:38:15.047Z,100.00
2022-10-10T04:40:42.721Z,100.00
2022-10-10T04:43:11.821Z,100.00
2022-10-10T04:45:40.204Z,100.00
2022-10-10T04:48:08.131Z,100.00
2022-10-10T04:50:35.865Z,100.00
2022-10-10T04:53:03.915Z,100.00
2022-10-10T04:55:31.649Z,100.00
2022-10-10T04:57:59.720Z,100.00
2022-10-10T05:00:27.683Z,100.00
2022-10-10T05:02:56.074Z,100.00
2022-10-10T05:05:23.942Z,100.00
2022-10-10T05:07:55.456Z,100.00
2022-10-10T05:10:24.628Z,100.00
2022-10-10T05:12:53.404Z,100.00
2022-10-10T05:15:22.729Z,100.00
2022-10-10T05:17:50.780Z,100.00
2022-10-10T05:20:18.621Z,100.00
2022-10-10T05:22:46.781Z,100.00
2022-10-10T05:25:14.542Z,100.00
2022-10-10T05:27:42.467Z,100.00
2022-10-10T05:30:10.614Z,100.00
2022-10-10T05:32:38.710Z,100.00
2022-10-10T05:35:07.513Z,100.00
2022-10-10T05:37:35.489Z,100.00
2022-10-10T05:40:03.565Z,100.00
2022-10-10T05:42:31.425Z,100.00
2022-10-10T05:44:59.261Z,100.00
2022-10-10T05:47:28.193Z,100.00
2022-10-10T05:49:56.112Z,100.00
2022-10-10T05:52:23.946Z,100.00
2022-10-10T05:54:52.515Z,100.00
2022-10-10T05:57:20.468Z,100.00
2022-10-10T05:59:48.282Z,100.00
2022-10-10T06:02:16.451Z,100.00
2022-10-10T06:04:44.437Z,100.00
2022-10-10T06:07:12.458Z,100.00
2022-10-10T06:09:40.380Z,100.00
2022-10-10T06:12:08.588Z,100.00
2022-10-10T06:14:36.247Z,100.00
2022-10-10T06:17:04.652Z,100.00
2022-10-10T06:19:32.339Z,100.00
2022-10-10T06:22:00.540Z,97.54
2022-10-10T06:24:28.198Z,93.17
2022-10-10T06:26:56.231Z,89.77
2022-10-10T06:29:23.972Z,86.31
2022-10-10T06:31:51.901Z,83.31
2022-10-10T06:34:19.689Z,82.16
2022-10-10T06:36:49.541Z,79.51
2022-10-10T06:39:17.348Z,79.64
2022-10-10T06:41:45.365Z,80.66
2022-10-10T06:44:13.093Z,80.69
2022-10-10T06:46:41.046Z,82.57
2022-10-10T06:49:08.763Z,83.36
2022-10-10T06:51:36.722Z,83.87
2022-10-10T06:54:05.118Z,84.89
2022-10-10T06:56:33.084Z,85.59
2022-10-10T06:59:01.111Z,86.23
2022-10-10T07:01:29.187Z,87.21
2022-10-10T07:03:56.924Z,87.86
2022-10-10T07:06:25.074Z,88.62
2022-10-10T07:08:52.803Z,88.83
2022-10-10T07:11:20.710Z,89.46
2022-10-10T07:13:51.408Z,89.58
2022-10-10T07:16:19.652Z,90.03
2022-10-10T07:18:47.446Z,90.70
2022-10-10T07:21:15.718Z,89.94
2022-10-10T07:23:43.516Z,85.34
2022-10-10T07:26:15.172Z,79.78
2022-10-10T07:28:43.080Z,77.85
2022-10-10T07:31:12.064Z,76.44
2022-10-10T07:33:49.871Z,75.17
2022-10-10T07:36:19.778Z,73.43
2022-10-10T07:38:54.775Z,72.72
2022-10-10T07:41:23.056Z,72.03
2022-10-10T07:43:55.965Z,69.98
2022-10-10T07:46:24.830Z,64.41
2022-10-10T07:48:52.574Z,58.30
2022-10-10T07:51:20.613Z,52.67
2022-10-10T07:53:48.393Z,48.79
2022-10-10T07:56:16.305Z,45.54
2022-10-10T07:58:43.972Z,43.90
2022-10-10T08:01:13.347Z,41.40
2022-10-10T08:03:41.570Z,39.75
2022-10-10T08:06:15.366Z,39.11
2022-10-10T08:08:50.935Z,38.49
2022-10-10T08:11:21.485Z,37.34
2022-10-10T08:13:50.081Z,36.09
2022-10-10T08:16:18.787Z,35.37
2022-10-10T08:18:46.698Z,35.67
2022-10-10T08:21:15.741Z,35.77
2022-10-10T08:23:44.010Z,34.44
2022-10-10T08:26:14.914Z,33.86
2022-10-10T08:28:43.730Z,33.22
2022-10-10T08:31:18.226Z,32.85
2022-10-10T08:33:46.559Z,32.43
2022-10-10T08:36:20.944Z,32.36
2022-10-10T08:38:48.818Z,32.61
2022-10-10T08:41:35.200Z,33.62
2022-10-10T08:44:23.185Z,33.17
2022-10-10T08:47:09.499Z,32.63
2022-10-10T08:49:49.777Z,31.82
2022-10-10T08:52:20.766Z,31.69
2022-10-10T08:54:50.058Z,30.99
2022-10-10T08:57:33.463Z,31.59
2022-10-10T09:00:07.684Z,31.82
2022-10-10T09:02:53.038Z,32.18
2022-10-10T09:05:31.860Z,32.82
2022-10-10T09:08:02.771Z,32.67
2022-10-10T09:10:39.493Z,32.49
2022-10-10T09:13:23.435Z,31.92
2022-10-10T09:16:17.658Z,31.81
2022-10-10T09:19:24.238Z,31.13
2022-10-10T09:21:57.297Z,31.64
2022-10-10T09:24:32.420Z,31.19
2022-10-10T09:27:09.593Z,31.63
2022-10-10T09:29:44.502Z,31.95
2022-10-10T09:32:14.362Z,32.39
2022-10-10T09:34:48.178Z,31.51
2022-10-10T09:37:42.332Z,31.28
2022-10-10T09:40:31.359Z,31.37
2022-10-10T09:43:10.902Z,31.25
2022-10-10T09:45:46.637Z,31.90
2022-10-10T09:48:14.475Z,31.81
2022-10-10T09:50:43.920Z,31.93
2022-10-10T09:53:16.178Z,31.71
2022-10-10T09:55:46.485Z,31.55
2022-10-10T09:58:35.602Z,31.80
2022-10-10T10:01:14.780Z,32.00
2022-10-10T10:03:42.926Z,32.35
2022-10-10T10:06:20.770Z,32.94
2022-10-10T10:08:53.525Z,34.19
2022-10-10T10:11:28.823Z,36.39
2022-10-10T10:13:57.980Z,38.42
2022-10-10T10:16:33.421Z,40.11
2022-10-10T10:19:01.588Z,41.39
2022-10-10T10:21:31.350Z,42.59
2022-10-10T10:24:01.656Z,43.91
2022-10-10T10:26:49.260Z,45.17
2022-10-10T10:29:33.131Z,46.72
2022-10-10T10:32:06.726Z,47.26
2022-10-10T10:34:47.827Z,48.14
2022-10-10T10:37:30.614Z,48.13
2022-10-10T10:40:16.931Z,48.04
2022-10-10T10:43:00.191Z,48.26
2022-10-10T10:45:59.073Z,48.96
2022-10-10T10:48:40.044Z,49.44
2022-10-10T10:51:22.894Z,49.75
2022-10-10T10:54:24.023Z,49.13
2022-10-10T10:57:40.832Z,49.17
2022-10-10T11:00:33.001Z,49.55
2022-10-10T11:05:16.125Z,49.91
2022-10-10T11:06:54.258Z,49.39
2022-10-10T11:09:50.234Z,48.92
2022-10-10T11:12:37.102Z,49.00
2022-10-10T11:15:19.286Z,49.17
2022-10-10T11:18:03.309Z,49.39
2022-10-10T11:20:37.177Z,49.01
2022-10-10T11:23:42.202Z,48.47
2022-10-10T11:26:35.360Z,48.78
2022-10-10T11:29:05.299Z,48.79
2022-10-10T11:31:40.468Z,48.51
2022-10-10T11:34:20.385Z,48.85
2022-10-10T11:36:48.912Z,48.88
2022-10-10T11:39:23.793Z,49.27
2022-10-10T11:41:58.060Z,48.78
2022-10-10T11:44:35.149Z,49.33
2022-10-10T11:47:48.251Z,48.30
2022-10-10T11:50:29.002Z,48.31
2022-10-10T11:53:15.395Z,48.54
2022-10-10T11:56:12.777Z,48.91
2022-10-10T11:58:54.424Z,48.54
2022-10-10T12:01:40.438Z,48.62
2022-10-10T12:04:08.520Z,48.62
2022-10-10T12:06:41.440Z,48.97
2022-10-10T12:09:37.900Z,48.74
2022-10-10T12:12:13.054Z,48.41
2022-10-10T12:14:48.193Z,48.36
2022-10-10T12:17:39.909Z,48.60
2022-10-10T12:20:26.553Z,47.84
2022-10-10T12:23:19.594Z,46.83
2022-10-10T12:25:47.969Z,47.04
2022-10-10T12:28:15.764Z,46.96
2022-10-10T12:30:58.277Z,46.30
2022-10-10T12:33:29.338Z,46.35
2022-10-10T12:35:57.353Z,46.76
2022-10-10T12:38:28.056Z,46.66
2022-10-10T12:41:04.746Z,46.71
2022-10-10T12:43:52.179Z,46.85
2022-10-10T12:46:34.603Z,46.60
2022-10-10T12:49:05.156Z,46.39
2022-10-10T12:51:36.126Z,46.21
2022-10-10T12:54:06.577Z,45.18
2022-10-10T12:56:39.787Z,44.46
2022-10-10T12:59:23.859Z,44.45
2022-10-10T13:01:57.583Z,43.93
2022-10-10T13:04:28.423Z,43.71
2022-10-10T13:07:02.034Z,43.35
2022-10-10T13:09:35.831Z,43.73
2022-10-10T13:12:20.961Z,43.53
2022-10-10T13:14:48.984Z,43.70
2022-10-10T13:17:41.721Z,44.04
2022-10-10T13:20:26.663Z,43.65
2022-10-10T13:22:55.795Z,43.52
2022-10-10T13:25:24.411Z,43.18
2022-10-10T13:27:52.298Z,43.16
2022-10-10T13:30:25.477Z,42.88
2022-10-10T13:32:54.922Z,42.99
2022-10-10T13:35:26.743Z,43.22
2022-10-10T13:37:59.925Z,43.32
2022-10-10T13:40:28.616Z,43.70
2022-10-10T13:42:58.624Z,42.54
2022-10-10T13:45:30.940Z,42.42
2022-10-10T13:48:02.391Z,41.93
2022-10-10T13:50:48.752Z,41.90
2022-10-10T13:53:31.541Z,41.97
2022-10-10T13:55:59.674Z,42.17
2022-10-10T13:58:31.874Z,42.25
2022-10-10T14:01:02.873Z,42.45
2022-10-10T14:03:33.187Z,42.77
2022-10-10T14:06:01.423Z,43.40
2022-10-10T14:08:33.760Z,43.39
2022-10-10T14:11:07.837Z,43.29
2022-10-10T14:13:38.724Z,43.63
2022-10-10T14:16:13.696Z,43.67
2022-10-10T14:18:41.516Z,43.87
2022-10-10T14:21:09.582Z,43.64
2022-10-10T14:23:38.559Z,43.61
2022-10-10T14:26:11.171Z,43.63
2022-10-10T14:28:39.924Z,43.95
2022-10-10T14:31:08.082Z,43.68
2022-10-10T14:33:36.379Z,44.02
2022-10-10T14:36:04.460Z,44.33
2022-10-10T14:38:32.913Z,44.88
2022-10-10T14:41:01.822Z,44.91
2022-10-10T14:43:30.561Z,44.90
2022-10-10T14:45:58.257Z,45.25
2022-10-10T14:48:26.201Z,45.61
2022-10-10T14:50:53.902Z,45.95
2022-10-10T14:53:21.887Z,46.36
2022-10-10T14:55:55.248Z,46.82
2022-10-10T14:58:24.148Z,47.29
2022-10-10T15:00:53.127Z,47.32
2022-10-10T15:03:21.658Z,48.04
2022-10-10T15:05:49.618Z,47.91
2022-10-10T15:08:18.952Z,48.09
2022-10-10T15:10:47.695Z,48.81
2022-10-10T15:13:16.824Z,49.25
2022-10-10T15:15:46.422Z,49.42
2022-10-10T15:18:40.908Z,49.98
2022-10-10T15:21:09.940Z,50.61
2022-10-10T15:23:38.047Z,51.13
2022-10-10T15:26:06.307Z,51.75
2022-10-10T15:28:34.594Z,52.78
2022-10-10T15:31:03.167Z,53.00
2022-10-10T15:33:31.152Z,53.35
2022-10-10T15:36:09.542Z,53.79
2022-10-10T15:38:39.550Z,54.04
2022-10-10T15:41:10.260Z,54.62
2022-10-10T15:43:42.924Z,55.05
2022-10-10T15:46:10.853Z,55.29
2022-10-10T15:48:38.798Z,55.84
2022-10-10T15:51:08.168Z,55.92
2022-10-10T15:53:37.591Z,56.62
2022-10-10T15:56:13.353Z,56.99
2022-10-10T15:58:43.055Z,57.32
2022-10-10T16:01:13.796Z,57.78
2022-10-10T16:03:42.431Z,58.10
2022-10-10T16:06:11.582Z,58.48
2022-10-10T16:08:39.951Z,59.17
2022-10-10T16:11:10.260Z,59.79
2022-10-10T16:13:39.977Z,60.42
2022-10-10T16:16:10.581Z,60.71
2022-10-10T16:18:41.164Z,61.43
2022-10-10T16:21:14.134Z,61.79
2022-10-10T16:23:42.114Z,62.04
2022-10-10T16:26:22.228Z,62.42
2022-10-10T16:28:50.793Z,63.02
2022-10-10T16:31:19.786Z,63.46
2022-10-10T16:33:48.941Z,64.13
2022-10-10T16:36:22.278Z,64.65
2022-10-10T16:38:51.059Z,65.07
2022-10-10T16:41:35.578Z,65.68
2022-10-10T16:44:07.592Z,66.19
2022-10-10T16:46:35.531Z,66.59
2022-10-10T16:49:04.686Z,66.95
2022-10-10T16:51:32.476Z,67.23
2022-10-10T16:54:02.270Z,67.63
2022-10-10T16:56:30.521Z,68.12
2022-10-10T16:58:59.470Z,68.32
2022-10-10T17:01:27.649Z,69.00
2022-10-10T17:03:57.881Z,69.37
2022-10-10T17:06:25.677Z,69.58
2022-10-10T17:08:56.251Z,69.87
2022-10-10T17:11:25.677Z,70.20
2022-10-10T17:13:53.651Z,70.18
2022-10-10T17:19:12.328Z,70.46
2022-10-10T17:21:40.415Z,70.85
2022-10-10T17:24:08.408Z,70.85
2022-10-10T17:26:36.434Z,70.86
2022-10-10T17:29:04.251Z,71.12
2022-10-10T17:31:32.634Z,71.54
2022-10-10T17:34:00.512Z,71.76
2022-10-10T17:36:28.861Z,71.90
2022-10-10T17:38:57.197Z,72.35
2022-10-10T17:41:25.080Z,72.76
2022-10-10T17:43:53.443Z,73.24
2022-10-10T17:46:34.933Z,73.50
2022-10-10T17:49:05.762Z,73.69
2022-10-10T17:51:34.425Z,73.86
2022-10-10T17:54:03.508Z,74.52
2022-10-10T17:56:31.818Z,74.25
2022-10-10T17:59:01.980Z,74.52
2022-10-10T18:01:33.096Z,74.70
2022-10-10T18:04:02.153Z,75.02
2022-10-10T18:06:30.455Z,75.41
2022-10-10T18:08:58.607Z,76.23
2022-10-10T18:11:30.896Z,76.21
2022-10-10T18:14:01.682Z,76.39
2022-10-10T18:16:33.931Z,76.62
2022-10-10T18:19:03.672Z,76.99
2022-10-10T18:21:31.623Z,77.42
2022-10-10T18:24:00.704Z,76.80
2022-10-10T18:26:30.473Z,76.54
2022-10-10T18:28:58.807Z,76.60
2022-10-10T18:31:38.166Z,77.17
2022-10-10T18:34:07.019Z,77.35
2022-10-10T18:36:37.328Z,77.31
2022-10-10T18:39:08.078Z,77.21
2022-10-10T18:41:36.103Z,77.36
2022-10-10T18:44:06.849Z,77.82
2022-10-10T18:46:35.832Z,77.95
2022-10-10T18:49:06.119Z,77.71
2022-10-10T18:51:34.090Z,77.97
2022-10-10T18:54:08.489Z,77.86
2022-10-10T18:56:38.874Z,77.63
2022-10-10T18:59:11.734Z,77.53
2022-10-10T19:01:40.415Z,77.97
2022-10-10T19:04:10.313Z,78.00
2022-10-10T19:06:39.821Z,78.14
2022-10-10T19:09:12.001Z,78.04
2022-10-10T19:11:42.347Z,78.20
2022-10-10T19:14:16.075Z,77.99
2022-10-10T19:16:45.168Z,78.42
2022-10-10T19:19:18.478Z,78.37
2022-10-10T19:21:48.066Z,78.78
2022-10-10T19:24:20.907Z,78.98
2022-10-10T19:26:55.723Z,79.17
2022-10-10T19:29:27.318Z,79.51
2022-10-10T19:31:56.208Z,79.58
2022-10-10T19:34:24.707Z,79.95
2022-10-10T19:36:53.583Z,80.18
2022-10-10T19:39:21.506Z,80.11
2022-10-10T19:41:49.612Z,80.53
2022-10-10T19:44:17.770Z,80.56
2022-10-10T19:46:45.687Z,80.74
2022-10-10T19:49:13.423Z,80.88
2022-10-10T19:51:41.286Z,81.03
2022-10-10T19:54:09.380Z,80.94
2022-10-10T19:56:37.204Z,80.99
2022-10-10T19:59:06.078Z,81.37
2022-10-10T20:01:34.320Z,81.13
2022-10-10T20:04:02.314Z,81.74
2022-10-10T20:06:30.259Z,82.08
2022-10-10T20:08:58.304Z,82.26
2022-10-10T20:11:26.565Z,82.26
2022-10-10T20:13:55.965Z,82.69
2022-10-10T20:16:26.628Z,82.52
2022-10-10T20:18:56.317Z,82.60
2022-10-10T20:21:31.509Z,83.07
2022-10-10T20:24:02.191Z,83.50
2022-10-10T20:26:30.321Z,83.65
2022-10-10T20:28:58.541Z,83.71
2022-10-10T20:31:29.713Z,84.01
2022-10-10T20:34:00.781Z,84.04
2022-10-10T20:36:30.755Z,84.49
2022-10-10T20:39:01.497Z,84.48
2022-10-10T20:41:32.950Z,84.57
2022-10-10T20:44:03.405Z,84.72
2022-10-10T20:46:34.988Z,84.77
2022-10-10T20:49:05.375Z,85.05
2022-10-10T20:51:33.481Z,85.15
2022-10-10T20:54:03.776Z,85.01
2022-10-10T20:56:33.588Z,85.04
2022-10-10T20:59:02.234Z,85.24
2022-10-10T21:01:31.221Z,85.42
2022-10-10T21:03:59.863Z,85.80
2022-10-10T21:06:30.108Z,86.03
2022-10-10T21:09:00.692Z,86.27
2022-10-10T21:11:29.167Z,86.14
2022-10-10T21:13:59.198Z,86.17
2022-10-10T21:16:32.811Z,86.63
2022-10-10T21:19:01.146Z,86.41
2022-10-10T21:21:32.611Z,86.41
2022-10-10T21:24:02.369Z,86.43
2022-10-10T21:26:31.092Z,85.87
2022-10-10T21:29:02.894Z,85.86
2022-10-10T21:31:38.081Z,85.68
2022-10-10T21:34:08.250Z,85.89
2022-10-10T21:36:37.302Z,85.86
2022-10-10T21:39:08.496Z,85.61
2022-10-10T21:41:37.832Z,85.20
2022-10-10T21:44:06.136Z,84.80
2022-10-10T21:46:36.735Z,84.72
2022-10-10T21:49:10.676Z,84.68
2022-10-10T21:51:41.460Z,83.80
2022-10-10T21:54:10.334Z,83.54
2022-10-10T21:56:39.349Z,83.10
2022-10-10T21:59:07.326Z,82.93
2022-10-10T22:01:37.398Z,82.49
2022-10-10T22:04:05.746Z,82.08
2022-10-10T22:06:33.818Z,81.81
2022-10-10T22:09:02.762Z,81.61
2022-10-10T22:11:32.390Z,81.68
2022-10-10T22:14:02.487Z,81.80
2022-10-10T22:16:32.066Z,81.48
2022-10-10T22:18:59.948Z,81.06
2022-10-10T22:21:31.866Z,80.75
2022-10-10T22:24:02.824Z,80.98
2022-10-10T22:26:31.565Z,80.79
2022-10-10T22:28:59.567Z,80.91
2022-10-10T22:31:27.493Z,80.44
2022-10-10T22:33:55.417Z,80.25
2022-10-10T22:36:23.140Z,80.17
2022-10-10T22:38:51.127Z,80.15
2022-10-10T22:41:18.863Z,80.21
2022-10-10T22:43:46.824Z,80.48
2022-10-10T22:46:14.921Z,80.07
2022-10-10T22:48:42.636Z,79.65
2022-10-10T22:51:16.228Z,78.87
2022-10-10T22:53:45.509Z,78.49
2022-10-10T22:56:15.970Z,78.69
2022-10-10T22:58:44.030Z,78.51
2022-10-10T23:01:17.446Z,77.84
2022-10-10T23:03:45.599Z,78.06
2022-10-10T23:06:13.928Z,78.11
2022-10-10T23:08:41.710Z,77.89
2022-10-10T23:11:09.516Z,77.41
2022-10-10T23:13:37.406Z,76.82
2022-10-10T23:16:05.543Z,76.98
2022-10-10T23:18:33.731Z,76.68
2022-10-10T23:21:01.631Z,76.85
2022-10-10T23:23:29.764Z,75.93
2022-10-10T23:25:57.536Z,76.08
2022-10-10T23:28:25.538Z,75.42
2022-10-10T23:30:53.362Z,75.73
2022-10-10T23:33:21.094Z,75.59
2022-10-10T23:36:01.554Z,75.65
2022-10-10T23:38:30.540Z,75.94
2022-10-10T23:40:58.477Z,75.95
2022-10-10T23:43:26.298Z,75.71
2022-10-10T23:45:54.022Z,75.62
2022-10-10T23:48:21.947Z,74.67
2022-10-10T23:50:49.742Z,74.97
2022-10-10T23:53:17.622Z,75.32
2022-10-10T23:55:47.135Z,75.61
2022-10-10T23:58:15.841Z,75.67
